Аэропорт: Елизово. Петропавловск-Камчатский

ICAO: UHPP

METAR:
2019/05/26 14:00
UHPP 261400Z 07001MPS 9999 -SHRA BKN009 OVC020CB 01/01 Q1009 R16R/290250 NOSIG RMK QFE753/1005
METAR:
2019/05/26 12:21
TAF UHPP 261053Z 2612/2718 19003G12MPS 5000 -SHRA BR BKN006 OVC020CB 
      TEMPO 2612/2617 0900 DZ FG VV003 
      TEMPO 2617/2623 28003MPS 0500 FG VV002 
     FM262300 34003G12MPS 9999 SCT020CB BKN050